createdAt,value
2023-05-05T00:01:30.704Z,12.00
2023-05-05T00:03:57.578Z,12.10
2023-05-05T00:06:24.474Z,12.20
2023-05-05T00:08:51.358Z,12.20
2023-05-05T00:11:18.231Z,12.10
2023-05-05T00:13:45.351Z,12.00
2023-05-05T00:16:12.194Z,11.90
2023-05-05T00:18:39.044Z,11.90
2023-05-05T00:21:06.076Z,11.90
2023-05-05T00:23:32.930Z,11.90
2023-05-05T00:25:59.802Z,11.90
2023-05-05T00:28:27.524Z,11.90
2023-05-05T00:30:54.442Z,11.90
2023-05-05T00:33:21.346Z,12.00
2023-05-05T00:35:48.246Z,12.10
2023-05-05T00:38:15.061Z,12.10
2023-05-05T00:40:42.364Z,12.10
2023-05-05T00:43:09.323Z,12.10
2023-05-05T00:45:37.560Z,12.00
2023-05-05T00:48:05.643Z,12.00
2023-05-05T00:50:32.629Z,12.00
2023-05-05T00:53:03.849Z,11.90
2023-05-05T00:55:32.460Z,12.00
2023-05-05T00:58:02.631Z,12.00
2023-05-05T01:00:30.116Z,12.00
2023-05-05T01:02:57.386Z,12.00
2023-05-05T01:05:27.052Z,12.10
2023-05-05T01:08:44.625Z,12.10
2023-05-05T01:11:29.356Z,12.10
2023-05-05T01:14:19.182Z,12.20
2023-05-05T01:17:00.125Z,12.20
2023-05-05T01:20:01.135Z,12.20
2023-05-05T01:22:41.526Z,12.10
2023-05-05T01:25:38.604Z,12.00
2023-05-05T01:28:28.550Z,11.80
2023-05-05T01:31:32.873Z,11.80
2023-05-05T01:34:06.065Z,11.70
2023-05-05T01:36:42.240Z,11.60
2023-05-05T01:39:16.158Z,11.60
2023-05-05T01:41:52.668Z,11.50
2023-05-05T01:44:20.399Z,11.60
2023-05-05T01:46:49.518Z,11.40
2023-05-05T01:49:16.858Z,11.30
2023-05-05T01:51:47.218Z,11.30
2023-05-05T01:54:18.696Z,11.40
2023-05-05T01:56:47.590Z,11.60
2023-05-05T01:59:16.001Z,11.40
2023-05-05T02:01:45.900Z,11.40
2023-05-05T02:04:14.549Z,11.40
2023-05-05T02:06:44.343Z,11.30
2023-05-05T02:09:14.327Z,11.30
2023-05-05T02:11:41.561Z,11.20
2023-05-05T02:14:11.278Z,11.10
2023-05-05T02:16:41.213Z,11.00
2023-05-05T02:19:09.876Z,11.00
2023-05-05T02:21:37.708Z,10.80
2023-05-05T02:24:05.389Z,10.70
2023-05-05T02:26:39.224Z,10.70
2023-05-05T02:29:24.437Z,10.60
2023-05-05T02:31:58.283Z,10.50
2023-05-05T02:34:27.989Z,10.40
2023-05-05T02:36:59.050Z,10.50
2023-05-05T02:39:32.933Z,10.40
2023-05-05T02:42:05.721Z,10.20
2023-05-05T02:44:34.469Z,10.20
2023-05-05T02:47:04.894Z,10.20
2023-05-05T02:49:31.857Z,10.20
2023-05-05T02:51:59.070Z,10.30
2023-05-05T02:54:27.717Z,10.30
2023-05-05T02:56:57.757Z,10.30
2023-05-05T02:59:52.844Z,10.30
2023-05-05T03:02:40.940Z,10.20
2023-05-05T03:05:25.093Z,10.00
2023-05-05T03:08:17.571Z,10.00
2023-05-05T03:10:58.940Z,9.90
2023-05-05T03:13:29.154Z,9.80
2023-05-05T03:15:58.593Z,9.70
2023-05-05T03:18:28.078Z,9.70
2023-05-05T03:20:55.328Z,9.60
2023-05-05T03:23:22.884Z,9.60
2023-05-05T03:25:50.391Z,9.60
2023-05-05T03:28:18.204Z,9.60
2023-05-05T03:30:45.233Z,9.70
2023-05-05T03:33:12.121Z,9.80
2023-05-05T03:35:38.960Z,9.80
2023-05-05T03:38:05.908Z,9.80
2023-05-05T03:40:43.577Z,9.90
2023-05-05T03:43:12.083Z,9.80
2023-05-05T03:45:38.994Z,9.80
2023-05-05T03:48:06.962Z,9.70
2023-05-05T03:50:33.851Z,9.60
2023-05-05T03:53:00.928Z,9.50
2023-05-05T03:55:27.792Z,9.50
2023-05-05T03:57:54.689Z,9.40
2023-05-05T04:00:21.914Z,9.30
2023-05-05T04:02:48.889Z,9.40
2023-05-05T04:05:16.086Z,9.40
2023-05-05T04:07:43.011Z,9.40
2023-05-05T04:10:10.211Z,9.40
2023-05-05T04:12:37.289Z,9.40
2023-05-05T04:15:04.756Z,9.50
2023-05-05T04:17:31.630Z,9.50
2023-05-05T04:19:58.449Z,9.50
2023-05-05T04:22:25.282Z,9.60
2023-05-05T04:24:52.347Z,9.70
2023-05-05T04:27:19.191Z,9.80
2023-05-05T04:29:46.479Z,9.90
2023-05-05T04:32:13.385Z,10.00
2023-05-05T04:34:40.219Z,10.10
2023-05-05T04:37:07.059Z,10.10
2023-05-05T04:39:34.106Z,10.10
2023-05-05T04:42:02.239Z,10.20
2023-05-05T04:44:29.220Z,10.40
2023-05-05T04:46:56.247Z,10.20
2023-05-05T04:49:23.197Z,10.30
2023-05-05T04:51:50.022Z,10.30
2023-05-05T04:54:16.956Z,10.40
2023-05-05T04:56:43.872Z,10.50
2023-05-05T04:59:10.822Z,10.60
2023-05-05T05:01:38.701Z,10.70
2023-05-05T05:04:05.789Z,10.70
2023-05-05T05:06:32.771Z,10.80
2023-05-05T05:08:59.933Z,10.90
2023-05-05T05:11:27.212Z,11.10
2023-05-05T05:13:54.304Z,11.70
2023-05-05T05:16:21.936Z,12.30
2023-05-05T05:18:48.782Z,12.80
2023-05-05T05:21:15.714Z,13.40
2023-05-05T05:23:42.567Z,14.30
2023-05-05T05:26:09.541Z,15.30
2023-05-05T05:28:36.432Z,15.90
2023-05-05T05:31:03.325Z,16.30
2023-05-05T05:33:30.293Z,16.40
2023-05-05T05:35:57.173Z,16.40
2023-05-05T05:38:24.012Z,16.70
2023-05-05T05:40:50.931Z,17.00
2023-05-05T05:43:17.743Z,17.50
2023-05-05T05:45:44.668Z,18.00
2023-05-05T05:48:11.639Z,18.30
2023-05-05T05:50:38.629Z,18.40
2023-05-05T05:53:05.640Z,18.50
2023-05-05T05:55:32.599Z,18.70
2023-05-05T05:58:00.206Z,19.00
2023-05-05T06:00:27.414Z,19.40
2023-05-05T06:02:54.452Z,19.70
2023-05-05T06:05:21.455Z,20.00
2023-05-05T06:07:48.332Z,20.40
2023-05-05T06:10:26.601Z,21.00
2023-05-05T06:12:55.142Z,21.40
2023-05-05T06:15:22.006Z,21.60
2023-05-05T06:17:48.929Z,21.60
2023-05-05T06:20:15.837Z,21.70
2023-05-05T06:22:42.914Z,21.80
2023-05-05T06:25:09.995Z,22.20
2023-05-05T06:27:36.793Z,22.90
2023-05-05T06:30:04.107Z,23.30
2023-05-05T06:32:31.365Z,23.50
2023-05-05T06:34:58.219Z,23.60
2023-05-05T06:37:25.173Z,23.60
2023-05-05T06:39:51.950Z,23.70
2023-05-05T06:42:18.877Z,23.70
2023-05-05T06:44:45.764Z,23.60
2023-05-05T06:47:12.791Z,23.50
2023-05-05T06:49:39.651Z,23.40
2023-05-05T06:52:08.299Z,23.30
2023-05-05T06:54:35.361Z,23.20
2023-05-05T06:57:02.298Z,23.10
2023-05-05T06:59:29.212Z,22.90
2023-05-05T07:01:56.549Z,22.60
2023-05-05T07:04:23.464Z,22.40
2023-05-05T07:06:50.338Z,22.20
2023-05-05T07:09:17.675Z,22.00
2023-05-05T07:11:44.613Z,22.00
2023-05-05T07:14:11.501Z,21.90
2023-05-05T07:16:39.083Z,21.90
2023-05-05T07:19:06.392Z,22.00
2023-05-05T07:21:34.581Z,22.20
2023-05-05T07:24:03.358Z,22.60
2023-05-05T07:26:30.309Z,22.70
2023-05-05T07:28:58.969Z,22.70
2023-05-05T07:31:26.632Z,22.70
2023-05-05T07:33:53.815Z,22.80
2023-05-05T07:36:20.976Z,23.30
2023-05-05T07:38:48.079Z,24.00
2023-05-05T07:41:15.006Z,24.80
2023-05-05T07:43:44.242Z,25.60
2023-05-05T07:46:12.250Z,25.90
2023-05-05T07:48:41.671Z,25.70
2023-05-05T07:51:09.313Z,25.60
2023-05-05T07:53:36.661Z,25.60
2023-05-05T07:56:04.015Z,25.60
2023-05-05T07:58:31.034Z,25.80
2023-05-05T08:00:59.471Z,26.20
2023-05-05T08:03:26.598Z,26.70
2023-05-05T08:05:55.443Z,27.30
2023-05-05T08:08:25.223Z,27.70
2023-05-05T08:10:53.116Z,27.60
2023-05-05T08:13:20.449Z,27.40
2023-05-05T08:15:47.716Z,27.40
2023-05-05T08:18:14.968Z,27.70
2023-05-05T08:20:42.008Z,27.50
2023-05-05T08:23:08.906Z,27.40
2023-05-05T08:25:36.084Z,27.30
2023-05-05T08:28:03.194Z,27.10
2023-05-05T08:30:30.728Z,26.80
2023-05-05T08:32:57.822Z,26.50
2023-05-05T08:35:24.808Z,26.50
2023-05-05T08:37:51.983Z,26.40
2023-05-05T08:40:24.997Z,26.10
2023-05-05T08:42:51.876Z,25.70
2023-05-05T08:45:18.732Z,25.50
2023-05-05T08:47:45.881Z,25.70
2023-05-05T08:50:13.860Z,25.90
2023-05-05T08:52:51.357Z,26.10
2023-05-05T08:55:29.422Z,25.70
2023-05-05T08:57:58.345Z,25.10
2023-05-05T09:00:27.262Z,24.90
2023-05-05T09:02:58.249Z,24.90
2023-05-05T09:05:26.761Z,24.90
2023-05-05T09:07:54.308Z,25.40
2023-05-05T09:10:21.779Z,25.80
2023-05-05T09:12:51.145Z,26.20
2023-05-05T09:15:18.328Z,26.50
2023-05-05T09:17:45.489Z,26.70
2023-05-05T09:20:14.911Z,26.90
2023-05-05T09:22:47.010Z,27.30
2023-05-05T09:25:18.297Z,27.50
2023-05-05T09:27:48.575Z,27.60
2023-05-05T09:30:18.288Z,27.40
2023-05-05T09:32:51.677Z,27.40
2023-05-05T09:35:19.783Z,27.70
2023-05-05T09:37:47.273Z,27.70
2023-05-05T09:40:17.083Z,28.00
2023-05-05T09:42:47.345Z,28.20
2023-05-05T09:45:20.419Z,28.00
2023-05-05T09:47:48.778Z,27.70
2023-05-05T09:50:19.001Z,27.60
2023-05-05T09:53:03.747Z,28.00
2023-05-05T09:55:33.888Z,28.60
2023-05-05T09:58:30.865Z,28.80
2023-05-05T10:00:59.161Z,28.90
2023-05-05T10:03:26.417Z,28.90
2023-05-05T10:05:56.451Z,28.80
2023-05-05T10:08:25.949Z,29.10
2023-05-05T10:10:59.613Z,29.50
2023-05-05T10:13:27.868Z,29.50
2023-05-05T10:15:57.779Z,29.60
2023-05-05T10:18:28.752Z,29.10
2023-05-05T10:21:01.225Z,28.20
2023-05-05T10:23:52.600Z,27.40
2023-05-05T10:26:22.618Z,27.00
2023-05-05T10:28:56.051Z,26.60
2023-05-05T10:31:49.307Z,26.60
2023-05-05T10:34:54.823Z,27.10
2023-05-05T10:37:22.913Z,27.50
2023-05-05T10:39:52.634Z,27.30
2023-05-05T10:42:23.594Z,26.50
2023-05-05T10:44:51.383Z,25.90
2023-05-05T10:47:21.381Z,26.20
2023-05-05T10:50:11.985Z,26.80
2023-05-05T10:53:16.156Z,27.10
2023-05-05T10:56:10.831Z,26.70
2023-05-05T10:58:58.240Z,26.10
2023-05-05T11:01:35.427Z,25.70
2023-05-05T11:04:23.361Z,25.40
2023-05-05T11:07:11.051Z,25.30
2023-05-05T11:09:59.056Z,25.40
2023-05-05T11:12:26.026Z,25.40
2023-05-05T11:15:28.238Z,25.40
2023-05-05T11:18:01.517Z,25.30
2023-05-05T11:20:36.353Z,25.20
2023-05-05T11:23:03.284Z,25.10
2023-05-05T11:25:36.670Z,25.10
2023-05-05T11:28:08.830Z,25.10
2023-05-05T11:30:57.513Z,25.00
2023-05-05T11:33:33.479Z,24.80
2023-05-05T11:36:06.158Z,24.70
2023-05-05T11:38:54.794Z,24.50
2023-05-05T11:41:35.809Z,24.30
2023-05-05T11:44:16.359Z,24.00
2023-05-05T11:46:52.284Z,23.80
2023-05-05T11:49:34.940Z,23.30
2023-05-05T11:52:12.448Z,22.90
2023-05-05T11:54:47.968Z,22.60
2023-05-05T11:57:31.492Z,22.20
2023-05-05T12:00:10.698Z,21.90
2023-05-05T12:02:37.924Z,21.50
2023-05-05T12:05:05.663Z,21.20
2023-05-05T12:07:33.620Z,20.90
2023-05-05T12:10:01.195Z,20.40
2023-05-05T12:12:40.131Z,19.80
2023-05-05T12:15:08.927Z,19.20
2023-05-05T12:17:46.139Z,18.50
2023-05-05T12:20:13.738Z,17.60
2023-05-05T12:22:41.022Z,16.80
2023-05-05T12:25:08.949Z,16.20
2023-05-05T12:27:36.248Z,15.80
2023-05-05T12:30:17.935Z,15.40
2023-05-05T12:32:45.959Z,15.20
2023-05-05T12:35:13.774Z,15.20
2023-05-05T12:37:41.776Z,15.10
2023-05-05T12:40:44.938Z,15.00
2023-05-05T12:43:44.461Z,14.90
2023-05-05T12:46:12.728Z,15.10
2023-05-05T12:48:45.111Z,15.10
2023-05-05T12:51:23.371Z,15.00
2023-05-05T12:54:09.946Z,15.30
2023-05-05T12:56:47.716Z,15.80
2023-05-05T12:59:24.039Z,16.30
2023-05-05T13:02:02.795Z,16.90
2023-05-05T13:04:29.926Z,16.90
2023-05-05T13:07:18.147Z,16.80
2023-05-05T13:09:45.983Z,16.90
2023-05-05T13:12:13.868Z,16.90
2023-05-05T13:14:41.915Z,16.80
2023-05-05T13:17:10.081Z,17.00
2023-05-05T13:19:42.045Z,17.10
2023-05-05T13:22:13.257Z,17.00
2023-05-05T13:24:50.737Z,17.00
2023-05-05T13:27:19.346Z,16.90
2023-05-05T13:29:46.725Z,17.00
2023-05-05T13:32:13.936Z,17.00
2023-05-05T13:34:41.548Z,17.10
2023-05-05T13:37:08.727Z,17.40
2023-05-05T13:39:36.981Z,17.40
2023-05-05T13:42:04.086Z,17.50
2023-05-05T13:44:31.397Z,17.60
2023-05-05T13:46:58.416Z,17.80
2023-05-05T13:49:25.701Z,17.90
2023-05-05T13:51:52.581Z,18.00
2023-05-05T13:54:19.495Z,18.00
2023-05-05T13:56:46.551Z,18.10
2023-05-05T13:59:13.600Z,18.20
2023-05-05T14:01:40.805Z,18.20
2023-05-05T14:04:08.084Z,18.30
2023-05-05T14:06:36.099Z,18.30
2023-05-05T14:09:05.972Z,18.30
2023-05-05T14:11:33.396Z,18.20
2023-05-05T14:14:00.704Z,18.20
2023-05-05T14:16:27.661Z,18.00
2023-05-05T14:18:54.589Z,17.80
2023-05-05T14:21:21.515Z,17.40
2023-05-05T14:23:48.351Z,17.00
2023-05-05T14:26:15.297Z,16.80
2023-05-05T14:28:43.561Z,16.70
2023-05-05T14:31:11.203Z,16.60
2023-05-05T14:33:38.236Z,16.60
2023-05-05T14:36:05.653Z,16.60
2023-05-05T14:38:32.729Z,16.70
2023-05-05T14:40:59.787Z,16.70
2023-05-05T14:43:26.820Z,16.70
2023-05-05T14:45:53.837Z,16.80
2023-05-05T14:48:22.400Z,17.00
2023-05-05T14:50:49.952Z,17.10
2023-05-05T14:53:18.849Z,17.30
2023-05-05T14:55:45.811Z,17.40
2023-05-05T14:58:12.689Z,17.40
2023-05-05T15:00:39.584Z,17.50
2023-05-05T15:03:06.546Z,17.50
2023-05-05T15:05:33.475Z,17.50
2023-05-05T15:08:00.338Z,17.50
2023-05-05T15:10:27.626Z,17.60
2023-05-05T15:12:54.515Z,17.70
2023-05-05T15:15:21.364Z,17.90
2023-05-05T15:17:48.384Z,18.00
2023-05-05T15:20:15.303Z,18.10
2023-05-05T15:22:42.161Z,18.30
2023-05-05T15:25:12.274Z,18.50
2023-05-05T15:27:39.935Z,18.60
2023-05-05T15:30:07.657Z,18.80
2023-05-05T15:32:34.595Z,18.90
2023-05-05T15:35:01.694Z,18.90
2023-05-05T15:37:29.792Z,18.90
2023-05-05T15:39:56.921Z,18.90
2023-05-05T15:42:24.522Z,19.00
2023-05-05T15:44:52.051Z,19.00
2023-05-05T15:47:19.472Z,19.00
2023-05-05T15:49:46.333Z,19.10
2023-05-05T15:52:13.994Z,19.00
2023-05-05T15:54:41.439Z,19.00
2023-05-05T15:57:08.418Z,19.00
2023-05-05T15:59:35.980Z,19.00
2023-05-05T16:02:02.863Z,19.00
2023-05-05T16:04:29.981Z,19.10
2023-05-05T16:06:57.981Z,19.10
2023-05-05T16:09:24.903Z,19.10
2023-05-05T16:11:54.430Z,19.00
2023-05-05T16:14:21.424Z,19.00
2023-05-05T16:16:48.523Z,18.90
2023-05-05T16:19:15.914Z,18.80
2023-05-05T16:21:42.857Z,18.70
2023-05-05T16:24:09.700Z,18.60
2023-05-05T16:26:36.904Z,18.60
2023-05-05T16:29:03.824Z,18.60
2023-05-05T16:31:32.067Z,18.50
2023-05-05T16:33:58.880Z,18.50
2023-05-05T16:36:26.240Z,18.40
2023-05-05T16:38:53.990Z,18.30
2023-05-05T16:41:22.502Z,18.10
2023-05-05T16:43:50.255Z,17.90
2023-05-05T16:46:17.257Z,17.80
2023-05-05T16:48:44.200Z,17.60
2023-05-05T16:51:11.098Z,17.50
2023-05-05T16:53:37.955Z,17.40
2023-05-05T16:56:05.077Z,17.40
2023-05-05T16:58:32.359Z,17.20
2023-05-05T17:01:01.823Z,17.00
2023-05-05T17:03:28.673Z,16.80
2023-05-05T17:05:55.888Z,16.60
2023-05-05T17:08:23.564Z,16.30
2023-05-05T17:10:50.549Z,16.10
2023-05-05T17:13:17.480Z,15.80
2023-05-05T17:15:44.478Z,15.60
2023-05-05T17:18:11.429Z,15.40
2023-05-05T17:20:38.393Z,15.20
2023-05-05T17:23:05.294Z,14.90
2023-05-05T17:25:32.580Z,14.80
2023-05-05T17:27:59.626Z,14.50
2023-05-05T17:30:26.513Z,14.10
2023-05-05T17:32:53.737Z,13.70
2023-05-05T17:35:21.328Z,13.50
2023-05-05T17:37:48.196Z,13.20
2023-05-05T17:40:15.140Z,13.10
2023-05-05T17:42:41.969Z,13.00
2023-05-05T17:45:10.029Z,13.00
2023-05-05T17:47:37.489Z,13.00
2023-05-05T17:50:04.918Z,12.90
2023-05-05T17:52:31.820Z,12.90
2023-05-05T17:54:58.654Z,12.90
2023-05-05T17:57:25.488Z,13.00
2023-05-05T17:59:53.672Z,13.00
2023-05-05T18:02:20.967Z,13.10
2023-05-05T18:04:47.919Z,13.10
2023-05-05T18:07:14.880Z,13.10
2023-05-05T18:09:42.508Z,13.00
2023-05-05T18:12:09.741Z,13.00
2023-05-05T18:14:36.737Z,13.00
2023-05-05T18:17:04.644Z,13.00
2023-05-05T18:19:31.586Z,12.90
2023-05-05T18:21:59.055Z,12.90
2023-05-05T18:24:26.183Z,12.90
2023-05-05T18:26:53.154Z,12.90
2023-05-05T18:29:21.856Z,12.90
2023-05-05T18:31:51.980Z,12.90
2023-05-05T18:34:22.215Z,12.90
2023-05-05T18:36:51.425Z,12.90
2023-05-05T18:39:18.407Z,12.90
2023-05-05T18:41:45.322Z,12.90
2023-05-05T18:44:12.230Z,12.80
2023-05-05T18:46:39.174Z,12.70
2023-05-05T18:49:06.310Z,12.70
2023-05-05T18:51:33.177Z,12.70
2023-05-05T18:54:03.577Z,12.70
2023-05-05T18:56:30.749Z,12.60
2023-05-05T18:58:57.794Z,12.60
2023-05-05T19:01:24.716Z,12.50
2023-05-05T19:03:51.651Z,12.50
2023-05-05T19:06:18.557Z,12.50
2023-05-05T19:08:46.608Z,12.50
2023-05-05T19:11:15.012Z,12.50
2023-05-05T19:13:42.563Z,12.40
2023-05-05T19:16:11.245Z,12.40
2023-05-05T19:18:38.674Z,12.40
2023-05-05T19:21:05.707Z,12.40
2023-05-05T19:23:33.427Z,12.40
2023-05-05T19:26:00.653Z,12.30
2023-05-05T19:28:27.525Z,12.20
2023-05-05T19:30:54.450Z,12.20
2023-05-05T19:33:21.474Z,12.10
2023-05-05T19:35:48.702Z,12.10
2023-05-05T19:38:15.789Z,12.00
2023-05-05T19:40:43.710Z,12.00
2023-05-05T19:43:10.713Z,11.90
2023-05-05T19:45:37.779Z,11.80
2023-05-05T19:48:05.119Z,11.70
2023-05-05T19:50:32.097Z,11.60
2023-05-05T19:52:59.052Z,11.40
2023-05-05T19:55:25.953Z,11.40
2023-05-05T19:57:52.872Z,11.30
2023-05-05T20:00:20.016Z,11.40
2023-05-05T20:02:48.606Z,11.30
2023-05-05T20:05:17.269Z,11.20
2023-05-05T20:07:47.020Z,11.20
2023-05-05T20:10:14.298Z,11.30
2023-05-05T20:12:47.742Z,11.30
2023-05-05T20:15:21.726Z,11.20
2023-05-05T20:17:49.772Z,11.20
2023-05-05T20:20:20.903Z,11.20
2023-05-05T20:22:49.547Z,11.20
2023-05-05T20:25:16.708Z,11.20
2023-05-05T20:27:43.827Z,11.20
2023-05-05T20:30:12.251Z,11.20
2023-05-05T20:32:39.610Z,11.20
2023-05-05T20:35:07.364Z,11.30
2023-05-05T20:37:34.369Z,11.30
2023-05-05T20:40:01.267Z,11.30
2023-05-05T20:42:29.656Z,11.30
2023-05-05T20:44:56.784Z,11.30
2023-05-05T20:47:24.396Z,11.30
2023-05-05T20:49:52.552Z,11.30
2023-05-05T20:52:19.984Z,11.30
2023-05-05T20:54:46.847Z,11.30
2023-05-05T20:57:13.867Z,11.30
2023-05-05T20:59:40.726Z,11.40
2023-05-05T21:02:07.840Z,11.40
2023-05-05T21:04:35.013Z,11.40
2023-05-05T21:07:01.886Z,11.40
2023-05-05T21:09:29.062Z,11.50
2023-05-05T21:11:55.946Z,11.50
2023-05-05T21:14:23.443Z,11.50
2023-05-05T21:16:50.291Z,11.50
2023-05-05T21:19:17.205Z,11.50
2023-05-05T21:21:44.323Z,11.50
2023-05-05T21:24:13.023Z,11.50
2023-05-05T21:26:44.240Z,11.50
2023-05-05T21:29:11.713Z,11.50
2023-05-05T21:31:38.654Z,11.50
2023-05-05T21:34:05.652Z,11.50
2023-05-05T21:36:33.894Z,11.50
2023-05-05T21:39:01.069Z,11.50
2023-05-05T21:41:28.083Z,11.50
2023-05-05T21:43:55.199Z,11.60
2023-05-05T21:46:22.073Z,11.60
2023-05-05T21:48:48.958Z,11.60
2023-05-05T21:51:15.902Z,11.60
2023-05-05T21:53:43.046Z,11.50
2023-05-05T21:56:09.973Z,11.40
2023-05-05T21:58:36.826Z,11.30
2023-05-05T22:01:03.949Z,11.20
2023-05-05T22:03:31.021Z,11.10
2023-05-05T22:05:58.061Z,10.90
2023-05-05T22:08:24.963Z,10.70
2023-05-05T22:10:52.361Z,10.70
2023-05-05T22:13:19.340Z,10.60
2023-05-05T22:15:47.522Z,10.60
2023-05-05T22:18:15.512Z,10.60
2023-05-05T22:20:42.632Z,10.50
2023-05-05T22:23:09.581Z,10.40
2023-05-05T22:25:36.480Z,10.30
2023-05-05T22:28:03.572Z,10.30
2023-05-05T22:30:30.771Z,10.20
2023-05-05T22:32:57.736Z,10.20
2023-05-05T22:35:24.960Z,10.20
2023-05-05T22:37:51.873Z,10.10
2023-05-05T22:40:18.793Z,10.10
2023-05-05T22:42:45.652Z,10.40
2023-05-05T22:45:14.138Z,10.10
2023-05-05T22:47:41.137Z,10.10
2023-05-05T22:50:09.134Z,10.10
2023-05-05T22:52:36.599Z,10.00
2023-05-05T22:55:03.769Z,9.90
2023-05-05T22:57:30.841Z,9.90
2023-05-05T22:59:57.704Z,9.80
2023-05-05T23:02:26.548Z,9.80
2023-05-05T23:04:53.706Z,9.90
2023-05-05T23:07:20.838Z,9.90
2023-05-05T23:09:47.787Z,9.90
2023-05-05T23:12:14.675Z,10.00
2023-05-05T23:14:41.865Z,9.80
2023-05-05T23:17:08.951Z,9.80
2023-05-05T23:19:36.512Z,9.80
2023-05-05T23:22:04.352Z,9.90
2023-05-05T23:24:31.940Z,10.00
2023-05-05T23:27:03.459Z,10.00
2023-05-05T23:29:32.125Z,10.00
2023-05-05T23:31:58.980Z,10.00
2023-05-05T23:34:26.613Z,10.10
2023-05-05T23:36:53.487Z,10.00
2023-05-05T23:39:20.476Z,10.10
2023-05-05T23:41:47.386Z,10.10
2023-05-05T23:44:14.245Z,10.10
2023-05-05T23:46:41.193Z,10.10
2023-05-05T23:49:08.795Z,10.30
2023-05-05T23:51:36.266Z,10.10
2023-05-05T23:54:03.317Z,10.20
2023-05-05T23:56:30.443Z,10.10
2023-05-05T23:58:57.381Z,10.00
